sensor_id;sensor_type;location;lat;lon;timestamp;pressure;altitude;pressure_sealevel;temperature;humidity
80180;BME280;69505;52.134;5.438;2023-11-19T00:01:33;100967.97;;;12.38;100.00
80180;BME280;69505;52.134;5.438;2023-11-19T00:04:00;100970.50;;;12.39;100.00
80180;BME280;69505;52.134;5.438;2023-11-19T00:06:27;100965.28;;;12.38;100.00
80180;BME280;69505;52.134;5.438;2023-11-19T00:08:54;100972.56;;;12.36;100.00
80180;BME280;69505;52.134;5.438;2023-11-19T00:11:21;100968.94;;;12.37;100.00
80180;BME280;69505;52.134;5.438;2023-11-19T00:13:47;100952.97;;;12.37;100.00
80180;BME280;69505;52.134;5.438;2023-11-19T00:16:14;100952.09;;;12.36;100.00
80180;BME280;69505;52.134;5.438;2023-11-19T00:18:40;100966.03;;;12.40;100.00
80180;BME280;69505;52.134;5.438;2023-11-19T00:21:07;100953.19;;;12.34;100.00
80180;BME280;69505;52.134;5.438;2023-11-19T00:23:37;100955.16;;;12.32;100.00
80180;BME280;69505;52.134;5.438;2023-11-19T00:26:04;100964.84;;;12.33;100.00
80180;BME280;69505;52.134;5.438;2023-11-19T00:28:33;100963.75;;;12.35;100.00
80180;BME280;69505;52.134;5.438;2023-11-19T00:31:00;100951.53;;;12.33;100.00
80180;BME280;69505;52.134;5.438;2023-11-19T00:33:27;100953.09;;;12.35;100.00
80180;BME280;69505;52.134;5.438;2023-11-19T00:35:54;100943.78;;;12.30;100.00
80180;BME280;69505;52.134;5.438;2023-11-19T00:38:20;100933.63;;;12.24;100.00
80180;BME280;69505;52.134;5.438;2023-11-19T00:40:47;100943.91;;;12.28;100.00
80180;BME280;69505;52.134;5.438;2023-11-19T00:43:13;100929.22;;;12.34;100.00
80180;BME280;69505;52.134;5.438;2023-11-19T00:45:40;100937.59;;;12.29;100.00
80180;BME280;69505;52.134;5.438;2023-11-19T00:48:07;100940.16;;;12.31;100.00
80180;BME280;69505;52.134;5.438;2023-11-19T00:50:33;100934.81;;;12.31;100.00
80180;BME280;69505;52.134;5.438;2023-11-19T00:53:03;100919.47;;;12.23;100.00
80180;BME280;69505;52.134;5.438;2023-11-19T00:55:30;100909.22;;;12.18;100.00
80180;BME280;69505;52.134;5.438;2023-11-19T00:57:57;100915.69;;;12.26;100.00
80180;BME280;69505;52.134;5.438;2023-11-19T01:00:23;100915.47;;;12.29;100.00
80180;BME280;69505;52.134;5.438;2023-11-19T01:02:56;100922.84;;;12.25;100.00
80180;BME280;69505;52.134;5.438;2023-11-19T01:05:24;100925.25;;;12.28;100.00
80180;BME280;69505;52.134;5.438;2023-11-19T01:07:51;100925.41;;;12.27;100.00
80180;BME280;69505;52.134;5.438;2023-11-19T01:10:21;100921.03;;;12.26;100.00
80180;BME280;69505;52.134;5.438;2023-11-19T01:12:56;100920.91;;;12.27;100.00
80180;BME280;69505;52.134;5.438;2023-11-19T01:15:23;100932.41;;;12.28;100.00
80180;BME280;69505;52.134;5.438;2023-11-19T01:17:50;100927.69;;;12.31;100.00
80180;BME280;69505;52.134;5.438;2023-11-19T01:20:19;100923.91;;;12.34;100.00
80180;BME280;69505;52.134;5.438;2023-11-19T01:22:47;100910.19;;;12.38;100.00
80180;BME280;69505;52.134;5.438;2023-11-19T01:25:15;100897.03;;;12.37;100.00
80180;BME280;69505;52.134;5.438;2023-11-19T01:27:42;100909.28;;;12.28;100.00
80180;BME280;69505;52.134;5.438;2023-11-19T01:30:09;100906.50;;;12.30;100.00
80180;BME280;69505;52.134;5.438;2023-11-19T01:32:39;100899.72;;;12.26;100.00
80180;BME280;69505;52.134;5.438;2023-11-19T01:35:07;100897.34;;;12.23;100.00
80180;BME280;69505;52.134;5.438;2023-11-19T01:37:37;100905.19;;;12.24;100.00
80180;BME280;69505;52.134;5.438;2023-11-19T01:40:04;100897.22;;;12.24;100.00
80180;BME280;69505;52.134;5.438;2023-11-19T01:42:38;100904.81;;;12.29;100.00
80180;BME280;69505;52.134;5.438;2023-11-19T01:45:06;100905.78;;;12.28;100.00
80180;BME280;69505;52.134;5.438;2023-11-19T01:47:34;100898.38;;;12.31;100.00
80180;BME280;69505;52.134;5.438;2023-11-19T01:50:02;100909.63;;;12.35;100.00
80180;BME280;69505;52.134;5.438;2023-11-19T01:52:34;100913.00;;;12.37;100.00
80180;BME280;69505;52.134;5.438;2023-11-19T01:55:06;100907.94;;;12.34;100.00
80180;BME280;69505;52.134;5.438;2023-11-19T01:57:35;100909.03;;;12.31;100.00
80180;BME280;69505;52.134;5.438;2023-11-19T02:00:05;100907.09;;;12.33;100.00
80180;BME280;69505;52.134;5.438;2023-11-19T02:02:32;100910.34;;;12.37;100.00
80180;BME280;69505;52.134;5.438;2023-11-19T02:04:59;100898.81;;;12.36;100.00
80180;BME280;69505;52.134;5.438;2023-11-19T02:07:26;100898.25;;;12.33;100.00
80180;BME280;69505;52.134;5.438;2023-11-19T02:09:53;100898.63;;;12.28;100.00
80180;BME280;69505;52.134;5.438;2023-11-19T02:12:19;100895.38;;;12.25;100.00
80180;BME280;69505;52.134;5.438;2023-11-19T02:14:47;100888.84;;;12.17;100.00
80180;BME280;69505;52.134;5.438;2023-11-19T02:17:29;100888.41;;;12.12;100.00
80180;BME280;69505;52.134;5.438;2023-11-19T02:20:00;100895.19;;;12.05;100.00
80180;BME280;69505;52.134;5.438;2023-11-19T02:22:27;100900.66;;;12.04;100.00
80180;BME280;69505;52.134;5.438;2023-11-19T02:24:59;100906.88;;;11.93;100.00
80180;BME280;69505;52.134;5.438;2023-11-19T02:27:46;100915.19;;;12.00;100.00
80180;BME280;69505;52.134;5.438;2023-11-19T02:30:13;100914.59;;;11.96;100.00
80180;BME280;69505;52.134;5.438;2023-11-19T02:32:42;100912.91;;;11.84;100.00
80180;BME280;69505;52.134;5.438;2023-11-19T02:35:08;100920.88;;;11.84;100.00
80180;BME280;69505;52.134;5.438;2023-11-19T02:37:35;100915.59;;;11.72;100.00
80180;BME280;69505;52.134;5.438;2023-11-19T02:40:02;100916.56;;;11.71;100.00
80180;BME280;69505;52.134;5.438;2023-11-19T02:42:30;100905.66;;;11.63;100.00
80180;BME280;69505;52.134;5.438;2023-11-19T02:44:57;100914.75;;;11.61;100.00
80180;BME280;69505;52.134;5.438;2023-11-19T02:47:24;100900.25;;;11.65;100.00
80180;BME280;69505;52.134;5.438;2023-11-19T02:49:50;100896.50;;;11.56;100.00
80180;BME280;69505;52.134;5.438;2023-11-19T02:52:17;100890.34;;;11.55;100.00
80180;BME280;69505;52.134;5.438;2023-11-19T02:54:45;100903.16;;;11.50;100.00
80180;BME280;69505;52.134;5.438;2023-11-19T02:57:11;100901.47;;;11.49;100.00
80180;BME280;69505;52.134;5.438;2023-11-19T02:59:48;100906.44;;;11.54;100.00
80180;BME280;69505;52.134;5.438;2023-11-19T03:02:15;100910.53;;;11.58;100.00
80180;BME280;69505;52.134;5.438;2023-11-19T03:04:43;100905.69;;;11.52;100.00
80180;BME280;69505;52.134;5.438;2023-11-19T03:07:10;100907.75;;;11.48;100.00
80180;BME280;69505;52.134;5.438;2023-11-19T03:09:37;100904.75;;;11.42;100.00
80180;BME280;69505;52.134;5.438;2023-11-19T03:12:07;100900.88;;;11.34;100.00
80180;BME280;69505;52.134;5.438;2023-11-19T03:14:33;100901.25;;;11.30;100.00
80180;BME280;69505;52.134;5.438;2023-11-19T03:17:03;100901.38;;;11.28;100.00
80180;BME280;69505;52.134;5.438;2023-11-19T03:19:31;100912.22;;;11.25;100.00
80180;BME280;69505;52.134;5.438;2023-11-19T03:21:58;100909.31;;;11.17;100.00
80180;BME280;69505;52.134;5.438;2023-11-19T03:24:26;100902.59;;;11.13;100.00
80180;BME280;69505;52.134;5.438;2023-11-19T03:26:53;100919.75;;;11.09;100.00
80180;BME280;69505;52.134;5.438;2023-11-19T03:29:19;100907.66;;;11.16;100.00
80180;BME280;69505;52.134;5.438;2023-11-19T03:31:46;100903.78;;;11.09;100.00
80180;BME280;69505;52.134;5.438;2023-11-19T03:34:12;100902.34;;;11.05;100.00
80180;BME280;69505;52.134;5.438;2023-11-19T03:36:39;100896.75;;;11.08;100.00
80180;BME280;69505;52.134;5.438;2023-11-19T03:39:06;100896.50;;;11.00;100.00
80180;BME280;69505;52.134;5.438;2023-11-19T03:41:33;100890.00;;;11.04;100.00
80180;BME280;69505;52.134;5.438;2023-11-19T03:44:02;100888.81;;;10.96;100.00
80180;BME280;69505;52.134;5.438;2023-11-19T03:46:29;100883.97;;;10.90;100.00
80180;BME280;69505;52.134;5.438;2023-11-19T03:48:56;100875.72;;;10.82;100.00
80180;BME280;69505;52.134;5.438;2023-11-19T03:51:23;100899.88;;;10.79;100.00
80180;BME280;69505;52.134;5.438;2023-11-19T03:53:49;100895.28;;;10.70;100.00
80180;BME280;69505;52.134;5.438;2023-11-19T03:56:16;100902.50;;;10.68;100.00
80180;BME280;69505;52.134;5.438;2023-11-19T03:58:43;100903.59;;;10.65;100.00
80180;BME280;69505;52.134;5.438;2023-11-19T04:01:12;100907.19;;;10.64;100.00
80180;BME280;69505;52.134;5.438;2023-11-19T04:03:40;100903.34;;;10.68;100.00
80180;BME280;69505;52.134;5.438;2023-11-19T04:06:16;100914.44;;;10.62;100.00
80180;BME280;69505;52.134;5.438;2023-11-19T04:08:43;100908.03;;;10.53;100.00
80180;BME280;69505;52.134;5.438;2023-11-19T04:11:10;100915.25;;;10.51;100.00
80180;BME280;69505;52.134;5.438;2023-11-19T04:13:37;100920.09;;;10.57;100.00
80180;BME280;69505;52.134;5.438;2023-11-19T04:16:03;100914.78;;;10.57;100.00
80180;BME280;69505;52.134;5.438;2023-11-19T04:18:31;100921.91;;;10.57;100.00
80180;BME280;69505;52.134;5.438;2023-11-19T04:20:58;100925.88;;;10.51;100.00
80180;BME280;69505;52.134;5.438;2023-11-19T04:23:24;100923.00;;;10.54;100.00
80180;BME280;69505;52.134;5.438;2023-11-19T04:25:51;100920.34;;;10.54;100.00
80180;BME280;69505;52.134;5.438;2023-11-19T04:28:20;100928.44;;;10.53;100.00
80180;BME280;69505;52.134;5.438;2023-11-19T04:30:47;100924.78;;;10.54;100.00
80180;BME280;69505;52.134;5.438;2023-11-19T04:33:13;100918.66;;;10.53;100.00
80180;BME280;69505;52.134;5.438;2023-11-19T04:35:41;100927.13;;;10.59;100.00
80180;BME280;69505;52.134;5.438;2023-11-19T04:38:08;100923.59;;;10.58;100.00
80180;BME280;69505;52.134;5.438;2023-11-19T04:40:34;100912.75;;;10.50;100.00
80180;BME280;69505;52.134;5.438;2023-11-19T04:43:01;100929.97;;;10.44;100.00
80180;BME280;69505;52.134;5.438;2023-11-19T04:45:28;100921.03;;;10.45;100.00
80180;BME280;69505;52.134;5.438;2023-11-19T04:47:54;100934.03;;;10.37;100.00
80180;BME280;69505;52.134;5.438;2023-11-19T04:50:21;100937.03;;;10.32;100.00
80180;BME280;69505;52.134;5.438;2023-11-19T04:52:48;100928.22;;;10.32;100.00
80180;BME280;69505;52.134;5.438;2023-11-19T04:55:14;100917.09;;;10.27;100.00
80180;BME280;69505;52.134;5.438;2023-11-19T04:57:41;100921.00;;;10.34;100.00
80180;BME280;69505;52.134;5.438;2023-11-19T05:00:08;100908.34;;;10.38;100.00
80180;BME280;69505;52.134;5.438;2023-11-19T05:02:40;100917.88;;;10.40;100.00
80180;BME280;69505;52.134;5.438;2023-11-19T05:05:07;100919.53;;;10.30;100.00
80180;BME280;69505;52.134;5.438;2023-11-19T05:07:34;100925.75;;;10.29;100.00
80180;BME280;69505;52.134;5.438;2023-11-19T05:10:01;100932.16;;;10.26;100.00
80180;BME280;69505;52.134;5.438;2023-11-19T05:12:27;100936.84;;;10.23;100.00
80180;BME280;69505;52.134;5.438;2023-11-19T05:14:54;100939.63;;;10.21;100.00
80180;BME280;69505;52.134;5.438;2023-11-19T05:17:20;100943.47;;;10.17;100.00
80180;BME280;69505;52.134;5.438;2023-11-19T05:19:47;100939.97;;;10.16;100.00
80180;BME280;69505;52.134;5.438;2023-11-19T05:22:14;100933.69;;;10.18;100.00
80180;BME280;69505;52.134;5.438;2023-11-19T05:24:41;100930.97;;;10.06;100.00
80180;BME280;69505;52.134;5.438;2023-11-19T05:27:08;100927.34;;;10.07;100.00
80180;BME280;69505;52.134;5.438;2023-11-19T05:29:37;100926.63;;;10.05;100.00
80180;BME280;69505;52.134;5.438;2023-11-19T05:32:05;100932.16;;;10.02;100.00
80180;BME280;69505;52.134;5.438;2023-11-19T05:34:33;100926.63;;;10.05;100.00
80180;BME280;69505;52.134;5.438;2023-11-19T05:37:00;100927.59;;;10.04;100.00
80180;BME280;69505;52.134;5.438;2023-11-19T05:39:27;100936.19;;;9.95;100.00
80180;BME280;69505;52.134;5.438;2023-11-19T05:41:54;100925.03;;;10.03;100.00
80180;BME280;69505;52.134;5.438;2023-11-19T05:44:20;100929.72;;;9.99;100.00
80180;BME280;69505;52.134;5.438;2023-11-19T05:46:47;100932.38;;;9.99;100.00
80180;BME280;69505;52.134;5.438;2023-11-19T05:49:14;100927.59;;;10.04;100.00
80180;BME280;69505;52.134;5.438;2023-11-19T05:51:41;100925.88;;;10.03;100.00
80180;BME280;69505;52.134;5.438;2023-11-19T05:54:08;100947.84;;;10.05;100.00
80180;BME280;69505;52.134;5.438;2023-11-19T05:56:36;100932.66;;;10.07;100.00
80180;BME280;69505;52.134;5.438;2023-11-19T05:59:03;100946.06;;;10.06;100.00
80180;BME280;69505;52.134;5.438;2023-11-19T06:01:36;100940.13;;;10.02;100.00
80180;BME280;69505;52.134;5.438;2023-11-19T06:04:04;100928.03;;;9.98;100.00
80180;BME280;69505;52.134;5.438;2023-11-19T06:06:31;100927.78;;;10.01;100.00
80180;BME280;69505;52.134;5.438;2023-11-19T06:08:58;100938.19;;;10.04;100.00
80180;BME280;69505;52.134;5.438;2023-11-19T06:11:37;100933.97;;;10.02;100.00
80180;BME280;69505;52.134;5.438;2023-11-19T06:14:04;100936.28;;;10.06;100.00
80180;BME280;69505;52.134;5.438;2023-11-19T06:16:32;100925.16;;;10.01;100.00
80180;BME280;69505;52.134;5.438;2023-11-19T06:18:58;100927.19;;;9.98;100.00
80180;BME280;69505;52.134;5.438;2023-11-19T06:21:25;100938.13;;;9.93;100.00
80180;BME280;69505;52.134;5.438;2023-11-19T06:23:52;100927.41;;;9.94;100.00
80180;BME280;69505;52.134;5.438;2023-11-19T06:26:19;100938.00;;;9.94;100.00
80180;BME280;69505;52.134;5.438;2023-11-19T06:28:47;100951.19;;;9.96;100.00
80180;BME280;69505;52.134;5.438;2023-11-19T06:31:14;100946.22;;;9.91;100.00
80180;BME280;69505;52.134;5.438;2023-11-19T06:33:42;100951.38;;;9.93;100.00
80180;BME280;69505;52.134;5.438;2023-11-19T06:36:09;100955.75;;;9.94;100.00
80180;BME280;69505;52.134;5.438;2023-11-19T06:38:36;100951.38;;;9.93;100.00
80180;BME280;69505;52.134;5.438;2023-11-19T06:41:07;100947.50;;;9.86;100.00
80180;BME280;69505;52.134;5.438;2023-11-19T06:43:33;100961.50;;;9.88;100.00
80180;BME280;69505;52.134;5.438;2023-11-19T06:46:03;100954.47;;;9.87;100.00
80180;BME280;69505;52.134;5.438;2023-11-19T06:48:32;100961.16;;;9.92;100.00
80180;BME280;69505;52.134;5.438;2023-11-19T06:51:00;100974.53;;;9.91;100.00
80180;BME280;69505;52.134;5.438;2023-11-19T06:53:26;100970.00;;;9.80;100.00
80180;BME280;69505;52.134;5.438;2023-11-19T06:55:54;100966.50;;;9.80;100.00
80180;BME280;69505;52.134;5.438;2023-11-19T06:58:21;100972.53;;;9.82;100.00
80180;BME280;69505;52.134;5.438;2023-11-19T07:00:47;100977.31;;;9.89;100.00
80180;BME280;69505;52.134;5.438;2023-11-19T07:03:16;100980.13;;;9.99;100.00
80180;BME280;69505;52.134;5.438;2023-11-19T07:05:42;100977.72;;;9.96;100.00
80180;BME280;69505;52.134;5.438;2023-11-19T07:08:10;100983.66;;;9.87;100.00
80180;BME280;69505;52.134;5.438;2023-11-19T07:10:37;100978.34;;;9.87;100.00
80180;BME280;69505;52.134;5.438;2023-11-19T07:13:05;100975.16;;;9.94;100.00
80180;BME280;69505;52.134;5.438;2023-11-19T07:15:32;100978.88;;;9.92;100.00
80180;BME280;69505;52.134;5.438;2023-11-19T07:17:59;100988.53;;;9.93;100.00
80180;BME280;69505;52.134;5.438;2023-11-19T07:20:28;100982.03;;;9.97;100.00
80180;BME280;69505;52.134;5.438;2023-11-19T07:22:55;100990.00;;;9.97;100.00
80180;BME280;69505;52.134;5.438;2023-11-19T07:25:24;100992.16;;;9.92;100.00
80180;BME280;69505;52.134;5.438;2023-11-19T07:27:51;101002.78;;;9.92;100.00
80180;BME280;69505;52.134;5.438;2023-11-19T07:30:19;100990.75;;;9.99;100.00
80180;BME280;69505;52.134;5.438;2023-11-19T07:32:45;100997.09;;;10.09;100.00
80180;BME280;69505;52.134;5.438;2023-11-19T07:35:12;101004.84;;;10.12;100.00
80180;BME280;69505;52.134;5.438;2023-11-19T07:37:38;100997.09;;;10.09;100.00
80180;BME280;69505;52.134;5.438;2023-11-19T07:40:06;101006.53;;;10.13;100.00
80180;BME280;69505;52.134;5.438;2023-11-19T07:42:33;101006.53;;;10.13;100.00
80180;BME280;69505;52.134;5.438;2023-11-19T07:44:59;100998.56;;;10.13;100.00
80180;BME280;69505;52.134;5.438;2023-11-19T07:47:26;101000.72;;;10.08;100.00
80180;BME280;69505;52.134;5.438;2023-11-19T07:49:52;101011.84;;;10.13;100.00
80180;BME280;69505;52.134;5.438;2023-11-19T07:52:19;101017.78;;;10.17;100.00
80180;BME280;69505;52.134;5.438;2023-11-19T07:54:48;100999.28;;;10.15;100.00
80180;BME280;69505;52.134;5.438;2023-11-19T07:57:14;101006.06;;;10.20;100.00
80180;BME280;69505;52.134;5.438;2023-11-19T07:59:42;100999.94;;;10.19;100.00
80180;BME280;69505;52.134;5.438;2023-11-19T08:02:08;100997.91;;;10.23;100.00
80180;BME280;69505;52.134;5.438;2023-11-19T08:04:35;101005.44;;;10.16;100.00
80180;BME280;69505;52.134;5.438;2023-11-19T08:07:02;100995.69;;;10.16;100.00
80180;BME280;69505;52.134;5.438;2023-11-19T08:09:29;100999.28;;;10.15;100.00
80180;BME280;69505;52.134;5.438;2023-11-19T08:11:58;101004.59;;;10.15;100.00
80180;BME280;69505;52.134;5.438;2023-11-19T08:14:24;101000.28;;;10.14;100.00
80180;BME280;69505;52.134;5.438;2023-11-19T08:16:51;100992.31;;;10.14;100.00
80180;BME280;69505;52.134;5.438;2023-11-19T08:19:18;100998.94;;;10.20;100.00
80180;BME280;69505;52.134;5.438;2023-11-19T08:21:44;100999.19;;;10.17;100.00
80180;BME280;69505;52.134;5.438;2023-11-19T08:24:11;100996.94;;;10.24;100.00
80180;BME280;69505;52.134;5.438;2023-11-19T08:26:37;101000.09;;;10.29;100.00
80180;BME280;69505;52.134;5.438;2023-11-19T08:29:04;100995.00;;;10.26;100.00
80180;BME280;69505;52.134;5.438;2023-11-19T08:31:31;100997.66;;;10.26;100.00
80180;BME280;69505;52.134;5.438;2023-11-19T08:33:57;101016.22;;;10.39;100.00
80180;BME280;69505;52.134;5.438;2023-11-19T08:36:24;101004.09;;;10.47;100.00
80180;BME280;69505;52.134;5.438;2023-11-19T08:38:50;101016.16;;;10.51;100.00
80180;BME280;69505;52.134;5.438;2023-11-19T08:41:18;101010.66;;;10.54;100.00
80180;BME280;69505;52.134;5.438;2023-11-19T08:43:46;101017.66;;;10.55;100.00
80180;BME280;69505;52.134;5.438;2023-11-19T08:46:12;101014.88;;;10.57;100.00
80180;BME280;69505;52.134;5.438;2023-11-19T08:48:39;101022.59;;;10.60;100.00
80180;BME280;69505;52.134;5.438;2023-11-19T08:51:06;101026.53;;;10.67;100.00
80180;BME280;69505;52.134;5.438;2023-11-19T08:53:33;101025.59;;;10.80;100.00
80180;BME280;69505;52.134;5.438;2023-11-19T08:56:00;101022.72;;;10.83;100.00
80180;BME280;69505;52.134;5.438;2023-11-19T08:58:28;101023.44;;;10.85;100.00
80180;BME280;69505;52.134;5.438;2023-11-19T09:00:55;101022.97;;;10.91;100.00
80180;BME280;69505;52.134;5.438;2023-11-19T09:03:22;101019.88;;;10.97;100.00
80180;BME280;69505;52.134;5.438;2023-11-19T09:05:49;101022.91;;;11.04;100.00
80180;BME280;69505;52.134;5.438;2023-11-19T09:08:16;101026.31;;;11.17;100.00
80180;BME280;69505;52.134;5.438;2023-11-19T09:10:42;101012.16;;;11.16;100.00
80180;BME280;69505;52.134;5.438;2023-11-19T09:13:09;101006.38;;;11.23;100.00
80180;BME280;69505;52.134;5.438;2023-11-19T09:15:35;101007.94;;;11.25;100.00
80180;BME280;69505;52.134;5.438;2023-11-19T09:18:02;100999.88;;;11.27;100.00
80180;BME280;69505;52.134;5.438;2023-11-19T09:20:29;101016.91;;;11.35;100.00
80180;BME280;69505;52.134;5.438;2023-11-19T09:23:05;101005.44;;;11.35;100.00
80180;BME280;69505;52.134;5.438;2023-11-19T09:25:32;101003.16;;;11.30;100.00
80180;BME280;69505;52.134;5.438;2023-11-19T09:28:11;101003.97;;;11.31;100.00
80180;BME280;69505;52.134;5.438;2023-11-19T09:30:37;101008.47;;;11.30;100.00
80180;BME280;69505;52.134;5.438;2023-11-19T09:33:04;101000.75;;;11.38;100.00
80180;BME280;69505;52.134;5.438;2023-11-19T09:35:32;101013.88;;;11.40;100.00
80180;BME280;69505;52.134;5.438;2023-11-19T09:37:58;101011.63;;;11.47;100.00
80180;BME280;69505;52.134;5.438;2023-11-19T09:40:27;101014.03;;;11.50;100.00
80180;BME280;69505;52.134;5.438;2023-11-19T09:42:55;101010.16;;;11.54;100.00
80180;BME280;69505;52.134;5.438;2023-11-19T09:45:27;101015.16;;;11.70;100.00
80180;BME280;69505;52.134;5.438;2023-11-19T09:47:55;101004.84;;;11.65;100.00
80180;BME280;69505;52.134;5.438;2023-11-19T09:50:23;100995.41;;;11.61;100.00
80180;BME280;69505;52.134;5.438;2023-11-19T09:52:51;101002.19;;;11.65;100.00
80180;BME280;69505;52.134;5.438;2023-11-19T09:55:17;100993.34;;;11.65;100.00
80180;BME280;69505;52.134;5.438;2023-11-19T09:57:45;100993.13;;;11.68;100.00
80180;BME280;69505;52.134;5.438;2023-11-19T10:00:13;100996.53;;;11.70;100.00
80180;BME280;69505;52.134;5.438;2023-11-19T10:02:43;100990.31;;;11.69;100.00
80180;BME280;69505;52.134;5.438;2023-11-19T10:05:13;100986.59;;;11.72;100.00
80180;BME280;69505;52.134;5.438;2023-11-19T10:07:41;100994.94;;;11.78;100.00
80180;BME280;69505;52.134;5.438;2023-11-19T10:10:09;100988.41;;;11.83;100.00
80180;BME280;69505;52.134;5.438;2023-11-19T10:12:37;100990.59;;;11.89;100.00
80180;BME280;69505;52.134;5.438;2023-11-19T10:15:04;100993.50;;;11.97;100.00
80180;BME280;69505;52.134;5.438;2023-11-19T10:17:34;100986.44;;;12.07;100.00
80180;BME280;69505;52.134;5.438;2023-11-19T10:20:01;100980.50;;;12.15;100.00
80180;BME280;69505;52.134;5.438;2023-11-19T10:22:28;100966.34;;;12.14;100.00
80180;BME280;69505;52.134;5.438;2023-11-19T10:24:54;100975.78;;;12.18;100.00
80180;BME280;69505;52.134;5.438;2023-11-19T10:27:24;100955.97;;;12.44;100.00
80180;BME280;69505;52.134;5.438;2023-11-19T10:29:51;100973.00;;;12.52;99.07
80180;BME280;69505;52.134;5.438;2023-11-19T10:32:17;100963.31;;;12.51;96.61
80180;BME280;69505;52.134;5.438;2023-11-19T10:34:58;100969.81;;;12.58;97.46
80180;BME280;69505;52.134;5.438;2023-11-19T10:37:31;100958.91;;;12.62;96.53
80180;BME280;69505;52.134;5.438;2023-11-19T10:39:59;100973.72;;;12.54;96.44
80180;BME280;69505;52.134;5.438;2023-11-19T10:42:26;100956.53;;;12.47;95.76
80180;BME280;69505;52.134;5.438;2023-11-19T10:44:52;100964.78;;;12.44;96.96
80180;BME280;69505;52.134;5.438;2023-11-19T10:47:19;100965.72;;;12.54;95.70
80180;BME280;69505;52.134;5.438;2023-11-19T10:50:04;100962.75;;;12.69;96.28
80180;BME280;69505;52.134;5.438;2023-11-19T10:52:31;100956.91;;;12.75;96.02
80180;BME280;69505;52.134;5.438;2023-11-19T10:55:00;100968.94;;;12.90;94.71
80180;BME280;69505;52.134;5.438;2023-11-19T10:57:30;100961.94;;;12.89;95.60
80180;BME280;69505;52.134;5.438;2023-11-19T11:00:01;100954.59;;;12.91;94.33
80180;BME280;69505;52.134;5.438;2023-11-19T11:02:30;100956.13;;;12.84;95.06
80180;BME280;69505;52.134;5.438;2023-11-19T11:05:01;100956.41;;;12.81;95.26
80180;BME280;69505;52.134;5.438;2023-11-19T11:07:30;100961.00;;;12.79;95.00
80180;BME280;69505;52.134;5.438;2023-11-19T11:10:07;100974.06;;;12.82;96.37
80180;BME280;69505;52.134;5.438;2023-11-19T11:12:36;100969.00;;;12.79;95.38
80180;BME280;69505;52.134;5.438;2023-11-19T11:15:06;100968.81;;;12.71;95.54
80180;BME280;69505;52.134;5.438;2023-11-19T11:17:33;100980.41;;;12.70;95.79
80180;BME280;69505;52.134;5.438;2023-11-19T11:20:01;100970.47;;;12.72;95.93
80180;BME280;69505;52.134;5.438;2023-11-19T11:22:34;100976.00;;;12.80;95.88
80180;BME280;69505;52.134;5.438;2023-11-19T11:25:21;100957.34;;;12.80;94.17
80180;BME280;69505;52.134;5.438;2023-11-19T11:28:26;100953.72;;;12.81;94.67
80180;BME280;69505;52.134;5.438;2023-11-19T11:31:21;100950.91;;;12.83;93.74
80180;BME280;69505;52.134;5.438;2023-11-19T11:39:22;100944.94;;;12.90;93.33
80180;BME280;69505;52.134;5.438;2023-11-19T11:45:07;100956.53;;;12.79;94.10
80180;BME280;69505;52.134;5.438;2023-11-19T11:50:23;100948.53;;;12.79;95.49
80180;BME280;69505;52.134;5.438;2023-11-19T11:57:50;100956.84;;;12.86;94.27
80180;BME280;69505;52.134;5.438;2023-11-19T12:00:27;100940.00;;;12.86;94.12
80180;BME280;69505;52.134;5.438;2023-11-19T12:02:56;100948.00;;;12.86;94.46
80180;BME280;69505;52.134;5.438;2023-11-19T12:05:23;100942.56;;;12.87;93.98
80180;BME280;69505;52.134;5.438;2023-11-19T12:08:05;100945.94;;;12.89;95.24
80180;BME280;69505;52.134;5.438;2023-11-19T12:10:42;100940.41;;;12.81;95.14
80180;BME280;69505;52.134;5.438;2023-11-19T12:13:09;100934.59;;;12.76;95.77
80180;BME280;69505;52.134;5.438;2023-11-19T12:18:28;100933.16;;;12.72;94.52
80180;BME280;69505;52.134;5.438;2023-11-19T12:20:55;100926.47;;;12.77;94.28
80180;BME280;69505;52.134;5.438;2023-11-19T12:23:23;100918.09;;;12.82;94.20
80180;BME280;69505;52.134;5.438;2023-11-19T12:25:50;100920.03;;;12.80;94.32
80180;BME280;69505;52.134;5.438;2023-11-19T12:28:17;100930.38;;;12.73;95.85
80180;BME280;69505;52.134;5.438;2023-11-19T12:30:44;100932.22;;;12.73;95.36
80180;BME280;69505;52.134;5.438;2023-11-19T12:33:12;100940.19;;;12.73;96.29
80180;BME280;69505;52.134;5.438;2023-11-19T12:35:43;100929.78;;;12.70;94.91
80180;BME280;69505;52.134;5.438;2023-11-19T12:38:24;100935.38;;;12.67;95.18
80180;BME280;69505;52.134;5.438;2023-11-19T12:41:04;100940.72;;;12.67;95.28
80180;BME280;69505;52.134;5.438;2023-11-19T12:43:31;100938.56;;;12.61;94.98
80180;BME280;69505;52.134;5.438;2023-11-19T12:45:58;100948.25;;;12.62;94.75
80180;BME280;69505;52.134;5.438;2023-11-19T12:48:24;100939.72;;;12.68;95.19
80180;BME280;69505;52.134;5.438;2023-11-19T12:50:57;100936.53;;;12.74;95.70
80180;BME280;69505;52.134;5.438;2023-11-19T12:53:25;100932.44;;;12.70;94.59
80180;BME280;69505;52.134;5.438;2023-11-19T12:55:53;100942.38;;;12.68;94.77
80180;BME280;69505;52.134;5.438;2023-11-19T12:58:32;100924.47;;;12.70;94.73
80180;BME280;69505;52.134;5.438;2023-11-19T13:01:00;100927.84;;;12.72;94.45
80180;BME280;69505;52.134;5.438;2023-11-19T13:03:32;100932.94;;;12.75;92.45
80180;BME280;69505;52.134;5.438;2023-11-19T13:06:06;100936.88;;;12.80;93.38
80180;BME280;69505;52.134;5.438;2023-11-19T13:08:39;100930.97;;;12.77;94.50